Time;durP1;ratioP1;P1;durP2;ratioP2;P2;SDS_P1;SDS_P2;PMS_P1;PMS_P2;Temp;Humidity;BMP_temperature;BMP_pressure;BME280_temperature;BME280_humidity;BME280_pressure;Samples;Min_cycle;Max_cycle;Signal;HPM_P1;HPM_P2
2023/03/16 07:13:45;;;;;;;;;2.75;2.75;;;;;17.98;42.00;101010.34;5120328;27;45765;-75
2023/03/16 07:16:10;;;;;;;;;2.00;2.00;;;;;18.48;42.94;101010.88;5110765;27;45445;-73
2023/03/16 07:18:37;;;;;;;;;1.00;1.00;;;;;19.22;43.01;101014.53;5102891;27;45407;-74
2023/03/16 07:21:02;;;;;;;;;2.50;2.00;;;;;20.06;43.23;101025.25;5099688;27;45529;-73
2023/03/16 07:23:28;;;;;;;;;5.50;4.75;;;;;20.85;43.10;101017.19;5102887;27;46479;-75
2023/03/16 07:25:54;;;;;;;;;3.00;3.00;;;;;21.51;42.55;101011.94;5110485;27;45440;-75
2023/03/16 07:28:20;;;;;;;;;2.50;2.50;;;;;22.16;41.50;101015.59;5111243;27;45376;-75
2023/03/16 07:30:46;;;;;;;;;3.00;3.00;;;;;22.72;41.02;101012.78;5110165;27;45453;-75
2023/03/16 07:33:11;;;;;;;;;3.67;3.00;;;;;23.16;40.81;101009.19;5107767;27;45519;-75
2023/03/16 07:35:37;;;;;;;;;1.33;1.00;;;;;23.54;39.87;100996.22;5109532;27;45873;-75
2023/03/16 07:38:03;;;;;;;;;2.00;2.00;;;;;23.89;39.46;100995.31;5110997;27;45501;-75
2023/03/16 07:40:28;;;;;;;;;3.00;3.00;;;;;24.19;38.92;100995.75;5110333;27;45525;-75
2023/03/16 07:42:53;;;;;;;;;2.67;1.00;;;;;24.47;38.82;100993.59;5110276;27;45615;-74
2023/03/16 07:45:20;;;;;;;;;2.33;2.00;;;;;24.72;38.40;100990.88;5108810;27;45451;-74
2023/03/16 07:47:45;;;;;;;;;2.33;1.00;;;;;24.96;38.02;100985.59;5109203;27;45496;-74
2023/03/16 07:50:12;;;;;;;;;3.00;1.00;;;;;25.16;37.45;100988.78;5110265;27;45429;-74
2023/03/16 07:52:37;;;;;;;;;1.00;1.00;;;;;25.30;37.21;100984.50;5110532;27;46157;-74
2023/03/16 07:55:04;;;;;;;;;2.67;1.67;;;;;25.45;36.86;100995.50;5110495;27;45348;-74
2023/03/16 07:57:30;;;;;;;;;0.00;0.00;;;;;25.58;36.77;100991.41;5103348;27;45522;-75
2023/03/16 07:59:55;;;;;;;;;2.00;1.00;;;;;25.69;36.65;100991.00;5107711;27;45345;-75
2023/03/16 08:02:20;;;;;;;;;1.00;1.00;;;;;25.81;36.18;100987.88;5092977;27;46506;-76
2023/03/16 08:04:46;;;;;;;;;1.00;1.00;;;;;25.90;36.20;100984.97;5108124;27;45554;-74
2023/03/16 08:07:13;;;;;;;;;2.00;0.67;;;;;26.02;35.98;100987.25;5104160;27;45377;-74
2023/03/16 08:09:39;;;;;;;;;1.33;1.33;;;;;26.11;35.86;100990.78;5110463;27;45363;-71
2023/03/16 08:12:05;;;;;;;;;2.00;2.00;;;;;26.18;35.29;100989.03;5109093;27;46151;-71
2023/03/16 08:14:34;;;;;;;;;0.00;0.00;;;;;26.26;35.50;100982.72;5108263;27;45425;-71
2023/03/16 08:17:00;;;;;;;;;1.00;1.00;;;;;26.30;35.37;100975.88;5107343;27;45515;-71
2023/03/16 08:19:26;;;;;;;;;2.00;2.00;;;;;26.37;35.07;100981.44;5108747;27;45501;-72
2023/03/16 08:21:52;;;;;;;;;1.33;1.33;;;;;26.42;34.89;100981.75;5107958;27;45585;-73
2023/03/16 08:24:17;;;;;;;;;1.00;1.00;;;;;26.48;34.51;100981.00;5082317;27;45462;-72
2023/03/16 08:26:43;;;;;;;;;1.00;1.00;;;;;26.55;34.37;100990.16;5093767;27;45411;-75
2023/03/16 08:29:08;;;;;;;;;1.00;1.00;;;;;26.62;34.50;100992.97;5093896;27;45775;-75
2023/03/16 08:31:34;;;;;;;;;0.00;0.00;;;;;26.69;34.38;100993.09;5092448;27;56017;-74
2023/03/16 08:33:59;;;;;;;;;1.00;0.00;;;;;26.74;34.33;100984.38;5082942;27;45514;-73
2023/03/16 08:36:27;;;;;;;;;2.33;1.00;;;;;26.80;34.06;100979.03;5084108;27;45409;-73
2023/03/16 08:38:54;;;;;;;;;1.00;1.00;;;;;26.90;33.94;100977.91;5092232;27;45486;-74
2023/03/16 08:41:20;;;;;;;;;1.00;1.00;;;;;26.98;33.81;100982.47;5095631;27;46158;-71
2023/03/16 08:43:45;;;;;;;;;1.33;1.33;;;;;27.03;33.83;100980.03;5084378;27;45559;-72
2023/03/16 08:46:12;;;;;;;;;0.33;0.33;;;;;27.07;33.84;100986.78;5091972;27;45807;-71
2023/03/16 08:48:41;;;;;;;;;1.00;1.00;;;;;27.09;33.16;100991.03;5095769;27;45426;-73
2023/03/16 08:51:08;;;;;;;;;0.33;0.33;;;;;27.13;33.55;100985.22;5093319;27;45397;-73
2023/03/16 08:53:34;;;;;;;;;0.33;0.33;;;;;27.15;32.92;100978.53;5081033;27;45827;-73
2023/03/16 08:56:08;;;;;;;;;1.67;1.67;;;;;27.16;33.11;100977.50;5104336;27;45478;-74
2023/03/16 08:58:34;;;;;;;;;0.00;0.00;;;;;27.19;33.27;100973.56;5088264;27;45597;-74
2023/03/16 09:01:01;;;;;;;;;1.00;1.00;;;;;27.22;33.02;100967.75;5095539;27;46242;-73
2023/03/16 09:03:27;;;;;;;;;2.67;2.67;;;;;27.26;33.03;100974.47;5089984;27;45879;-73
2023/03/16 09:05:53;;;;;;;;;0.00;0.00;;;;;27.28;32.42;100977.03;5095558;27;45350;-74
2023/03/16 09:08:19;;;;;;;;;1.33;1.33;;;;;27.32;32.93;100976.47;5090924;27;45506;-73
2023/03/16 09:10:44;;;;;;;;;1.00;1.00;;;;;27.38;32.78;100976.75;5094094;27;45525;-73
2023/03/16 09:13:10;;;;;;;;;2.00;1.00;;;;;27.41;32.77;100977.19;5094967;27;45536;-73
2023/03/16 09:15:37;;;;;;;;;1.00;1.00;;;;;27.45;32.01;100980.38;5092009;27;45906;-74
2023/03/16 09:18:04;;;;;;;;;1.00;1.00;;;;;27.47;31.99;100984.63;5093460;27;45385;-73
2023/03/16 09:20:30;;;;;;;;;3.00;2.00;;;;;27.49;32.49;100974.38;5093552;27;45557;-73
2023/03/16 09:22:56;;;;;;;;;0.00;0.00;;;;;27.52;32.45;100975.03;5091820;27;45407;-74
2023/03/16 09:25:24;;;;;;;;;2.00;2.00;;;;;27.55;32.43;100971.94;5088521;27;45446;-74
2023/03/16 09:27:50;;;;;;;;;1.00;1.00;;;;;27.59;32.28;100975.97;5081425;27;45588;-74
2023/03/16 09:30:15;;;;;;;;;1.00;1.00;;;;;27.63;31.80;100971.88;5090361;27;45446;-74
2023/03/16 09:32:41;;;;;;;;;1.33;0.00;;;;;27.70;32.25;100961.88;5084776;27;45846;-74
2023/03/16 09:35:07;;;;;;;;;1.00;1.00;;;;;27.75;32.15;100958.59;5088804;27;45334;-74
2023/03/16 09:37:33;;;;;;;;;2.33;2.00;;;;;27.80;31.71;100947.09;5092011;27;45863;-74
2023/03/16 09:39:58;;;;;;;;;3.00;1.00;;;;;27.86;32.00;100949.88;5087735;27;51912;-73
2023/03/16 09:42:35;;;;;;;;;0.67;0.67;;;;;27.91;31.52;100945.75;5087560;27;45446;-75
2023/03/16 09:45:22;;;;;;;;;3.00;2.00;;;;;27.92;31.57;100945.56;5091764;27;45633;-75
2023/03/16 09:47:50;;;;;;;;;4.00;2.00;;;;;27.93;31.78;100936.31;5083386;27;45398;-75
2023/03/16 09:50:24;;;;;;;;;1.33;1.33;;;;;27.95;31.19;100933.41;5090584;27;47244;-75
2023/03/16 09:53:14;;;;;;;;;1.00;1.00;;;;;27.98;31.16;100935.72;5081999;27;45419;-74
2023/03/16 09:55:44;;;;;;;;;0.33;0.33;;;;;27.98;31.57;100928.41;5086104;27;45515;-73
2023/03/16 09:58:16;;;;;;;;;2.00;2.00;;;;;28.03;31.35;100941.44;5094279;27;45619;-74
2023/03/16 10:00:54;;;;;;;;;2.00;0.00;;;;;28.06;31.05;100932.03;5091076;27;46154;-71
2023/03/16 10:03:47;;;;;;;;;1.00;1.00;;;;;28.09;31.62;100935.22;5093921;27;45600;-71
2023/03/16 10:06:15;;;;;;;;;1.00;1.00;;;;;28.08;30.96;100930.78;5093275;27;45395;-74
2023/03/16 10:08:44;;;;;;;;;3.00;1.33;;;;;28.13;31.46;100935.69;5095097;27;45394;-75
2023/03/16 10:11:25;;;;;;;;;1.33;1.00;;;;;28.10;31.43;100928.72;5091911;27;46398;-73
2023/03/16 10:14:10;;;;;;;;;1.33;0.33;;;;;28.10;30.76;100923.28;5091671;27;45485;-73
2023/03/16 10:16:43;;;;;;;;;2.67;2.00;;;;;28.11;31.25;100922.22;5084419;27;45927;-72
2023/03/16 10:19:48;;;;;;;;;1.00;1.00;;;;;28.14;31.29;100926.44;5081955;27;45659;-72
2023/03/16 10:22:25;;;;;;;;;0.67;0.67;;;;;28.16;31.16;100924.38;5031478;28;45567;-72
2023/03/16 10:25:06;;;;;;;;;0.33;0.33;;;;;28.19;31.25;100923.16;5020975;28;45623;-71
2023/03/16 10:27:36;;;;;;;;;1.00;1.00;;;;;28.19;31.06;100923.97;5025695;28;45472;-73
2023/03/16 10:30:03;;;;;;;;;1.00;1.00;;;;;28.21;31.13;100913.72;5031713;28;45715;-73
2023/03/16 10:32:34;;;;;;;;;3.00;1.00;;;;;28.18;30.54;100918.69;5030749;28;45509;-73
2023/03/16 10:35:05;;;;;;;;;0.00;0.00;;;;;28.11;30.25;100910.44;5031449;28;45660;-73
2023/03/16 10:37:31;;;;;;;;;2.00;1.33;;;;;28.06;30.41;100911.06;5030807;28;45520;-75
2023/03/16 10:39:59;;;;;;;;;2.33;1.00;;;;;28.01;30.25;100899.88;5031179;28;45516;-75
2023/03/16 10:42:26;;;;;;;;;3.67;1.00;;;;;27.97;30.16;100899.44;5031144;28;45383;-75
2023/03/16 10:44:58;;;;;;;;;0.67;0.67;;;;;27.93;30.11;100900.88;5031094;28;46019;-75
2023/03/16 10:47:29;;;;;;;;;0.00;0.00;;;;;27.90;30.07;100901.25;5025675;28;45468;-75
2023/03/16 10:49:54;;;;;;;;;1.00;1.00;;;;;27.87;29.97;100909.81;5027505;28;45640;-75
2023/03/16 10:52:25;;;;;;;;;2.33;0.00;;;;;27.85;30.49;100900.97;5031315;28;46274;-75
2023/03/16 10:54:59;;;;;;;;;1.00;1.00;;;;;27.84;30.73;100899.31;5030444;28;45449;-75
2023/03/16 10:57:35;;;;;;;;;0.33;0.00;;;;;27.82;30.09;100883.13;5039795;28;45558;-75
2023/03/16 11:00:13;;;;;;;;;1.33;1.00;;;;;27.82;30.50;100887.72;5093483;27;45336;-75
2023/03/16 11:02:39;;;;;;;;;1.00;1.00;;;;;27.81;29.96;100888.78;5093344;27;47039;-75
2023/03/16 11:05:16;;;;;;;;;1.00;1.00;;;;;27.79;30.44;100875.31;5094506;27;45377;-75
2023/03/16 11:08:00;;;;;;;;;0.00;0.00;;;;;27.78;30.18;100876.38;5093816;27;45438;-75
2023/03/16 11:10:31;;;;;;;;;0.33;0.33;;;;;27.77;30.13;100871.09;5093965;27;45597;-75
2023/03/16 11:13:10;;;;;;;;;0.67;0.67;;;;;27.75;30.21;100861.25;5085643;27;46024;-76
2023/03/16 11:15:44;;;;;;;;;1.00;1.00;;;;;27.75;29.70;100868.59;5092610;27;45455;-74
2023/03/16 11:18:23;;;;;;;;;0.67;0.67;;;;;27.73;30.25;100860.59;5080803;27;45526;-74
2023/03/16 11:20:49;;;;;;;;;2.00;0.00;;;;;27.74;29.80;100858.69;5091166;27;45411;-74
2023/03/16 11:23:20;;;;;;;;;1.67;1.00;;;;;27.74;29.45;100858.69;5092094;27;46093;-75
2023/03/16 11:25:52;;;;;;;;;2.00;0.00;;;;;27.74;30.19;100856.84;5084665;27;45425;-75
2023/03/16 11:28:32;;;;;;;;;1.00;1.00;;;;;27.75;30.16;100847.59;5081102;27;45415;-74
2023/03/16 11:31:10;;;;;;;;;1.00;1.00;;;;;27.77;29.70;100849.28;5081250;27;45418;-74
2023/03/16 11:33:36;;;;;;;;;2.00;1.00;;;;;27.77;30.28;100841.09;5091181;27;45533;-74
2023/03/16 11:36:34;;;;;;;;;0.00;0.00;;;;;27.77;30.11;100832.94;5092265;27;45476;-74
2023/03/16 11:39:33;;;;;;;;;1.00;1.00;;;;;27.78;29.76;100823.72;5071362;27;45383;-77
2023/03/16 11:42:17;;;;;;;;;1.00;1.00;;;;;27.81;29.97;100823.31;5093600;27;45557;-76
2023/03/16 11:44:54;;;;;;;;;0.33;0.00;;;;;27.85;29.58;100816.44;5092573;27;45453;-76
2023/03/16 11:47:54;;;;;;;;;2.00;0.00;;;;;27.91;29.53;100812.09;5088470;27;45442;-74
2023/03/16 11:50:27;;;;;;;;;0.67;0.67;;;;;27.97;29.54;100809.44;5092611;27;45424;-77
2023/03/16 11:53:14;;;;;;;;;2.00;2.00;;;;;28.03;29.89;100807.78;5092259;27;45580;-74
2023/03/16 11:55:48;;;;;;;;;0.00;0.00;;;;;28.08;29.87;100801.72;5087778;27;46451;-76
2023/03/16 11:58:40;;;;;;;;;1.00;1.00;;;;;28.12;29.74;100809.31;5088399;27;45466;-77
2023/03/16 12:01:13;;;;;;;;;1.00;1.00;;;;;28.18;29.50;100815.00;5088257;27;45502;-77
2023/03/16 12:04:00;;;;;;;;;1.00;1.00;;;;;28.20;29.20;100812.94;5093500;27;45438;-77
2023/03/16 12:06:44;;;;;;;;;1.00;1.00;;;;;28.23;29.18;100807.94;5089273;27;45443;-77
2023/03/16 12:09:46;;;;;;;;;0.33;0.33;;;;;28.26;29.02;100801.25;5095358;27;45269;-76
2023/03/16 12:12:39;;;;;;;;;1.00;1.00;;;;;28.30;29.37;100790.78;5067125;28;45583;-74
2023/03/16 12:15:17;;;;;;;;;1.00;1.00;;;;;28.32;29.15;100788.72;5067495;28;45405;-74
2023/03/16 12:17:44;;;;;;;;;1.00;1.00;;;;;28.33;29.33;100785.78;5051634;28;46202;-75
2023/03/16 12:20:24;;;;;;;;;3.00;1.00;;;;;28.34;29.41;100789.34;5058397;28;45700;-73
2023/03/16 12:23:13;;;;;;;;;2.33;1.00;;;;;28.35;29.69;100791.88;5070461;28;45728;-72
2023/03/16 12:25:44;;;;;;;;;2.00;2.00;;;;;28.35;29.14;100780.97;5072684;28;46061;-72
2023/03/16 12:28:20;;;;;;;;;1.00;1.00;;;;;28.34;28.97;100770.25;5072667;28;46235;-72
2023/03/16 12:31:09;;;;;;;;;0.00;0.00;;;;;28.34;29.02;100768.38;5073119;28;45455;-74
2023/03/16 12:34:02;;;;;;;;;0.00;0.00;;;;;28.34;28.71;100768.38;5073092;28;45415;-74
2023/03/16 12:36:33;;;;;;;;;1.33;1.00;;;;;28.33;28.83;100761.22;5073528;28;45471;-73
2023/03/16 12:39:06;;;;;;;;;2.00;0.33;;;;;28.32;29.41;100756.78;5054705;28;46003;-73
2023/03/16 12:41:37;;;;;;;;;1.00;1.00;;;;;28.31;28.74;100752.38;5071792;28;45580;-73
2023/03/16 12:44:14;;;;;;;;;1.67;1.00;;;;;28.31;28.68;100744.19;5073597;27;45506;-73
2023/03/16 12:46:55;;;;;;;;;0.67;0.67;;;;;28.31;28.74;100740.63;5070468;28;45410;-73
2023/03/16 12:49:23;;;;;;;;;1.00;1.00;;;;;28.29;29.25;100729.91;5078794;27;46217;-71
2023/03/16 12:51:58;;;;;;;;;0.67;0.67;;;;;28.28;28.55;100726.34;5085903;27;45423;-71
2023/03/16 12:54:25;;;;;;;;;0.00;0.00;;;;;28.27;29.33;100719.19;5081290;27;45675;-73
2023/03/16 12:56:53;;;;;;;;;0.00;0.00;;;;;28.28;28.75;100720.88;5081705;27;45445;-73
2023/03/16 12:59:21;;;;;;;;;1.00;1.00;;;;;28.28;28.61;100714.56;5086172;27;45491;-72
2023/03/16 13:01:50;;;;;;;;;0.00;0.00;;;;;28.27;28.76;100711.00;5080492;27;45576;-72
2023/03/16 13:04:43;;;;;;;;;4.67;0.67;;;;;28.28;28.55;100711.84;5090256;27;45322;-72
2023/03/16 13:07:16;;;;;;;;;4.00;1.00;;;;;28.28;28.71;100704.50;5084511;27;45381;-72
2023/03/16 13:09:56;;;;;;;;;2.00;2.00;;;;;28.26;28.97;100703.03;5094019;27;46353;-74
2023/03/16 13:12:25;;;;;;;;;1.00;1.00;;;;;28.25;28.82;100699.44;5095611;27;45706;-76
2023/03/16 13:14:53;;;;;;;;;1.00;1.00;;;;;28.27;28.82;100691.91;5095930;27;45453;-75
2023/03/16 13:17:19;;;;;;;;;0.00;0.00;;;;;28.30;28.96;100689.81;5092890;27;45595;-76
2023/03/16 13:19:57;;;;;;;;;0.00;0.00;;;;;28.32;29.01;100680.38;5095298;27;45456;-75
2023/03/16 13:22:28;;;;;;;;;0.67;0.67;;;;;28.33;28.95;100673.88;5094663;27;45334;-76
2023/03/16 13:25:21;;;;;;;;;0.00;0.00;;;;;28.34;28.35;100672.84;5095757;27;45436;-75
2023/03/16 13:27:51;;;;;;;;;0.00;0.00;;;;;28.35;28.88;100669.06;5095319;27;45401;-75
2023/03/16 13:30:24;;;;;;;;;1.00;1.00;;;;;28.37;28.39;100664.22;5095726;27;47154;-76
2023/03/16 13:33:05;;;;;;;;;2.67;1.00;;;;;28.37;28.89;100657.94;5094948;27;45394;-75
2023/03/16 13:35:31;;;;;;;;;1.67;1.67;;;;;28.36;28.73;100651.63;5088043;27;45401;-73
2023/03/16 13:38:04;;;;;;;;;0.00;0.00;;;;;28.37;28.73;100649.75;5092407;27;45527;-76
2023/03/16 13:40:31;;;;;;;;;0.00;0.00;;;;;28.36;27.92;100645.34;5091007;27;46369;-76
2023/03/16 13:42:57;;;;;;;;;1.00;1.00;;;;;28.38;28.51;100643.25;5090095;27;45694;-76
2023/03/16 13:45:30;;;;;;;;;1.00;1.00;;;;;28.39;28.29;100642.19;5089612;27;45764;-77
2023/03/16 13:47:57;;;;;;;;;0.00;0.00;;;;;28.37;28.40;100636.94;5082576;27;45545;-77
2023/03/16 13:50:22;;;;;;;;;1.00;1.00;;;;;28.39;27.84;100639.47;5079855;27;45478;-76
2023/03/16 13:52:56;;;;;;;;;4.00;1.00;;;;;28.42;28.47;100647.25;5084596;27;45442;-75
2023/03/16 13:55:29;;;;;;;;;1.00;1.00;;;;;28.41;27.85;100640.94;5084871;27;45581;-76
2023/03/16 13:57:54;;;;;;;;;0.00;0.00;;;;;28.43;27.73;100637.16;5092174;27;45583;-74
2023/03/16 14:00:24;;;;;;;;;1.00;1.00;;;;;28.42;27.79;100633.59;5095562;27;45619;-76
2023/03/16 14:02:55;;;;;;;;;2.33;1.00;;;;;28.43;28.07;100634.44;5094345;27;45393;-74
2023/03/16 14:05:25;;;;;;;;;1.33;1.00;;;;;28.43;28.41;100631.69;5088379;27;46386;-74
2023/03/16 14:07:53;;;;;;;;;1.00;1.00;;;;;28.43;28.38;100624.38;5094257;27;45509;-75
2023/03/16 14:10:21;;;;;;;;;1.00;1.00;;;;;28.45;27.99;100624.16;5091056;27;45481;-75
2023/03/16 14:13:05;;;;;;;;;2.00;0.67;;;;;28.46;27.71;100618.50;5081858;27;45406;-75
2023/03/16 14:15:30;;;;;;;;;2.33;1.67;;;;;28.45;27.91;100614.09;5086746;27;45387;-75
2023/03/16 14:18:11;;;;;;;;;0.33;0.33;;;;;28.48;27.58;100621.84;5093802;27;45370;-75
2023/03/16 14:20:39;;;;;;;;;1.00;1.00;;;;;28.49;27.53;100615.34;5093719;27;45561;-76
2023/03/16 14:23:16;;;;;;;;;1.00;1.00;;;;;28.51;28.06;100607.81;5094263;27;45632;-75
2023/03/16 14:25:42;;;;;;;;;1.33;1.33;;;;;28.53;27.68;100605.69;5094392;27;45426;-75
2023/03/16 14:28:08;;;;;;;;;0.00;0.00;;;;;28.52;27.11;100595.84;5094680;27;45701;-75
2023/03/16 14:30:33;;;;;;;;;0.67;0.00;;;;;28.54;27.89;100603.81;5099134;27;45446;-75
2023/03/16 14:33:01;;;;;;;;;2.00;1.00;;;;;28.53;27.87;100602.16;5093991;27;45628;-75
2023/03/16 14:35:39;;;;;;;;;3.00;2.33;;;;;28.51;27.41;100601.50;5093180;27;45474;-73
2023/03/16 14:38:28;;;;;;;;;1.00;1.00;;;;;28.49;27.21;100601.69;5093455;27;46028;-73
2023/03/16 14:40:56;;;;;;;;;1.67;1.67;;;;;28.47;27.28;100600.22;5089953;27;46419;-74
2023/03/16 14:43:31;;;;;;;;;1.00;1.00;;;;;28.44;27.19;100600.66;5089477;27;45523;-73
2023/03/16 14:45:57;;;;;;;;;1.00;1.00;;;;;28.41;27.27;100593.72;5094712;27;45405;-74
2023/03/16 14:48:23;;;;;;;;;1.00;1.00;;;;;28.40;27.78;100600.19;5092614;27;45502;-74
2023/03/16 14:50:53;;;;;;;;;2.00;0.00;;;;;28.41;27.70;100599.19;5094461;27;45908;-75
2023/03/16 14:53:19;;;;;;;;;0.67;0.67;;;;;28.41;27.19;100585.53;5094221;27;45569;-76
2023/03/16 14:55:45;;;;;;;;;1.00;1.00;;;;;28.41;27.20;100589.09;5094553;27;45497;-72
2023/03/16 14:58:10;;;;;;;;;1.00;1.00;;;;;28.41;27.48;100589.09;5094074;27;45398;-72
2023/03/16 15:00:37;;;;;;;;;1.00;1.00;;;;;28.41;27.45;100575.44;5094255;27;46123;-73
2023/03/16 15:03:07;;;;;;;;;1.00;1.00;;;;;28.42;27.40;100581.75;5093666;27;45476;-73
2023/03/16 15:05:41;;;;;;;;;1.00;1.00;;;;;28.41;27.58;100571.88;5096105;27;45373;-74
2023/03/16 15:08:16;;;;;;;;;3.00;1.33;;;;;28.40;27.51;100562.84;5082472;27;45379;-71
2023/03/16 15:10:42;;;;;;;;;1.00;0.00;;;;;28.40;27.15;100568.31;5093571;27;45522;-72
2023/03/16 15:13:33;;;;;;;;;2.00;2.00;;;;;28.38;26.83;100566.81;5093872;27;45819;-74
2023/03/16 15:16:02;;;;;;;;;1.00;1.00;;;;;28.35;27.38;100561.75;5089155;27;46281;-75
2023/03/16 15:18:27;;;;;;;;;2.00;2.00;;;;;28.34;26.97;100560.09;5083541;27;45620;-75
2023/03/16 15:20:54;;;;;;;;;1.00;1.00;;;;;28.28;27.50;100546.22;5089016;27;46404;-75
2023/03/16 15:23:19;;;;;;;;;1.00;1.00;;;;;28.30;27.49;100553.34;5077266;27;45450;-73
2023/03/16 15:25:47;;;;;;;;;3.00;2.00;;;;;28.28;27.51;100543.50;5089009;27;45446;-72
2023/03/16 15:28:18;;;;;;;;;1.33;1.33;;;;;28.26;27.13;100542.88;5093978;27;45830;-72
2023/03/16 15:30:46;;;;;;;;;1.67;0.67;;;;;28.24;27.47;100550.41;5093611;27;46950;-72
2023/03/16 15:33:12;;;;;;;;;1.00;1.00;;;;;28.21;27.05;100545.34;5093056;27;45431;-74
2023/03/16 15:35:38;;;;;;;;;1.00;1.00;;;;;28.17;27.28;100546.81;5097386;27;45402;-72
2023/03/16 15:38:12;;;;;;;;;3.33;1.33;;;;;28.13;27.16;100546.34;5090434;27;45379;-72
2023/03/16 15:40:40;;;;;;;;;1.00;1.00;;;;;28.09;27.21;100541.50;5084039;27;45596;-73
2023/03/16 15:43:10;;;;;;;;;1.00;1.00;;;;;28.05;26.75;100532.06;5088018;27;45756;-74
2023/03/16 15:45:36;;;;;;;;;2.00;1.33;;;;;28.03;27.31;100529.53;5095393;27;45384;-72
2023/03/16 15:48:01;;;;;;;;;4.33;2.00;;;;;27.97;27.06;100527.63;5096734;27;45436;-72
2023/03/16 15:50:26;;;;;;;;;1.00;1.00;;;;;27.93;27.08;100527.19;5095073;27;46324;-72
2023/03/16 15:53:00;;;;;;;;;1.00;1.00;;;;;27.90;26.77;100519.41;5082342;27;45370;-72
2023/03/16 15:55:34;;;;;;;;;3.00;3.00;;;;;27.84;26.96;100512.06;5097461;27;45803;-76
2023/03/16 15:58:01;;;;;;;;;0.00;0.00;;;;;27.83;27.41;100516.66;5094461;27;46068;-75
2023/03/16 16:00:29;;;;;;;;;1.67;1.67;;;;;27.83;27.48;100513.94;5096992;27;46599;-76
2023/03/16 16:02:57;;;;;;;;;1.33;1.00;;;;;27.87;27.32;100507.03;5083436;27;45450;-75
2023/03/16 16:05:23;;;;;;;;;1.00;1.00;;;;;27.92;27.01;100511.88;5097408;27;45527;-75
2023/03/16 16:07:48;;;;;;;;;1.00;1.00;;;;;27.96;26.83;100494.03;5095304;27;45532;-75
2023/03/16 16:10:15;;;;;;;;;0.67;0.67;;;;;28.02;26.98;100498.69;5096866;27;45903;-75
2023/03/16 16:12:42;;;;;;;;;1.67;1.67;;;;;28.06;26.89;100501.84;5092433;27;45497;-75
2023/03/16 16:15:20;;;;;;;;;2.00;2.00;;;;;28.10;27.02;100499.53;5096904;27;45635;-75
2023/03/16 16:17:47;;;;;;;;;2.00;2.00;;;;;28.13;27.20;100490.97;5084806;27;45664;-75
2023/03/16 16:20:22;;;;;;;;;2.00;2.00;;;;;28.17;27.52;100499.56;5096086;27;45445;-75
2023/03/16 16:22:50;;;;;;;;;2.00;1.00;;;;;28.20;27.11;100490.97;5088858;27;45509;-76
2023/03/16 16:25:16;;;;;;;;;2.33;1.00;;;;;28.23;27.16;100494.13;5094907;27;45531;-75
2023/03/16 16:27:42;;;;;;;;;2.00;1.00;;;;;28.28;27.81;100493.53;5096321;27;45513;-74
2023/03/16 16:30:24;;;;;;;;;0.33;0.33;;;;;28.30;27.45;100486.00;5095431;27;46118;-75
2023/03/16 16:32:51;;;;;;;;;2.00;1.00;;;;;28.33;27.87;100496.50;5090429;27;45437;-72
2023/03/16 16:35:20;;;;;;;;;0.33;0.33;;;;;28.34;26.95;100500.06;5089360;27;45538;-72
2023/03/16 16:37:45;;;;;;;;;2.00;2.00;;;;;28.32;27.58;100493.97;5090450;27;46086;-73
2023/03/16 16:40:19;;;;;;;;;1.67;1.67;;;;;28.27;27.36;100506.34;5096152;27;45467;-72
2023/03/16 16:42:46;;;;;;;;;1.00;1.00;;;;;28.22;26.63;100503.38;5095033;27;45457;-72
2023/03/16 16:45:24;;;;;;;;;0.33;0.33;;;;;28.13;27.01;100504.59;5092932;27;45501;-72
2023/03/16 16:47:51;;;;;;;;;1.33;1.00;;;;;28.09;26.74;100522.41;5087633;27;45676;-75
2023/03/16 16:50:19;;;;;;;;;1.67;1.67;;;;;28.01;27.20;100520.72;5088834;27;46395;-74
2023/03/16 16:52:45;;;;;;;;;1.33;1.33;;;;;27.94;27.29;100519.84;5084222;27;45490;-73
2023/03/16 16:55:11;;;;;;;;;2.00;2.00;;;;;27.90;27.31;100513.13;5092537;27;45376;-73
2023/03/16 16:57:36;;;;;;;;;2.67;1.33;;;;;27.89;27.11;100517.75;5092346;27;45332;-76
2023/03/16 17:00:04;;;;;;;;;1.00;1.00;;;;;27.88;26.50;100514.16;5094631;27;45411;-73
2023/03/16 17:02:37;;;;;;;;;1.33;1.33;;;;;27.88;26.44;100507.88;5094595;27;46352;-73
2023/03/16 17:05:02;;;;;;;;;3.00;3.00;;;;;27.89;27.39;100512.28;5096260;27;45588;-74
2023/03/16 17:07:28;;;;;;;;;1.00;1.00;;;;;27.88;26.59;100516.06;5090551;27;45456;-73
2023/03/16 17:09:54;;;;;;;;;3.67;1.67;;;;;27.89;27.23;100517.75;5095411;27;45825;-72
2023/03/16 17:12:22;;;;;;;;;1.00;1.00;;;;;27.87;27.31;100512.47;5093915;27;45728;-74
2023/03/16 17:14:49;;;;;;;;;2.67;1.33;;;;;27.87;26.58;100515.22;5085996;27;45442;-74
2023/03/16 17:17:16;;;;;;;;;2.33;2.33;;;;;27.88;27.18;100513.34;5084048;27;45734;-74
2023/03/16 17:19:47;;;;;;;;;2.33;1.67;;;;;27.87;26.54;100504.31;5093100;27;46953;-74
2023/03/16 17:22:23;;;;;;;;;1.00;1.00;;;;;27.86;27.18;100512.69;5094213;27;45478;-74
2023/03/16 17:24:49;;;;;;;;;2.67;1.00;;;;;27.81;26.74;100498.81;5085174;27;45680;-74
2023/03/16 17:27:22;;;;;;;;;3.00;2.00;;;;;27.79;26.42;100495.47;5095117;27;45392;-74
2023/03/16 17:29:47;;;;;;;;;2.00;2.00;;;;;27.73;26.67;100492.50;5089916;27;45469;-74
2023/03/16 17:32:21;;;;;;;;;1.00;1.00;;;;;27.70;26.70;100497.50;5094768;27;45762;-75
2023/03/16 17:34:47;;;;;;;;;3.67;2.33;;;;;27.68;27.29;100491.44;5091111;27;45418;-74
2023/03/16 17:37:17;;;;;;;;;2.00;1.67;;;;;27.65;26.63;100495.41;5084661;27;45635;-73
2023/03/16 17:39:42;;;;;;;;;2.00;2.00;;;;;27.63;27.19;100494.78;5086042;27;45976;-75
2023/03/16 17:42:13;;;;;;;;;2.00;2.00;;;;;27.62;26.71;100498.53;5085279;27;46189;-74
2023/03/16 17:44:41;;;;;;;;;1.67;1.67;;;;;27.67;27.27;100500.66;5086553;27;45954;-74
2023/03/16 17:47:22;;;;;;;;;1.33;1.33;;;;;27.69;26.75;100498.56;5086961;27;45685;-76
2023/03/16 17:49:48;;;;;;;;;3.00;2.67;;;;;27.74;27.02;100498.78;5084856;27;47275;-74
2023/03/16 17:52:17;;;;;;;;;3.00;3.00;;;;;27.80;27.38;100497.13;5084178;27;45535;-74
2023/03/16 17:54:52;;;;;;;;;2.00;2.00;;;;;27.86;27.22;100493.59;5090353;27;45842;-75
2023/03/16 17:57:29;;;;;;;;;4.67;3.00;;;;;27.93;27.11;100490.88;5090514;27;45547;-75
2023/03/16 17:59:56;;;;;;;;;1.33;1.33;;;;;28.01;27.42;100494.28;5078142;27;46120;-73
2023/03/16 18:02:49;;;;;;;;;0.67;0.67;;;;;28.10;27.43;100500.41;5078441;27;46581;-71
2023/03/16 18:05:23;;;;;;;;;1.00;1.00;;;;;28.15;27.05;100492.44;5082034;27;46605;-73
2023/03/16 18:07:49;;;;;;;;;1.67;1.00;;;;;28.18;26.94;100487.59;5081422;27;45651;-73
2023/03/16 18:10:21;;;;;;;;;1.00;1.00;;;;;28.19;27.62;100479.22;5082498;27;46088;-72
2023/03/16 18:12:52;;;;;;;;;2.00;2.00;;;;;28.20;27.52;100478.16;5081842;27;45554;-72
2023/03/16 18:15:20;;;;;;;;;2.00;2.00;;;;;28.19;27.47;100481.94;5081936;27;46678;-72
2023/03/16 18:17:46;;;;;;;;;2.33;2.33;;;;;28.19;27.08;100472.94;5084635;27;45430;-72
2023/03/16 18:20:23;;;;;;;;;3.33;1.67;;;;;28.17;27.60;100470.41;5104084;27;46061;-72
2023/03/16 18:22:49;;;;;;;;;2.00;2.00;;;;;28.14;26.94;100465.34;5078138;27;45540;-72
2023/03/16 18:25:27;;;;;;;;;3.00;1.00;;;;;28.13;27.41;100477.31;5079216;27;45714;-72
2023/03/16 18:27:52;;;;;;;;;2.00;2.00;;;;;28.10;27.51;100473.13;5080179;27;45464;-72
2023/03/16 18:30:18;;;;;;;;;1.67;1.00;;;;;28.08;26.82;100468.91;5081549;27;45609;-72
2023/03/16 18:32:44;;;;;;;;;2.00;2.00;;;;;28.03;27.42;100464.06;5078228;27;45889;-72
2023/03/16 18:35:15;;;;;;;;;1.00;1.00;;;;;27.99;27.37;100458.19;5076906;27;45622;-72
2023/03/16 18:37:41;;;;;;;;;2.00;2.00;;;;;27.95;27.37;100461.53;5083830;27;45655;-71
2023/03/16 18:40:16;;;;;;;;;1.00;1.00;;;;;27.93;26.75;100456.28;5082660;27;45561;-72
2023/03/16 18:42:42;;;;;;;;;1.33;1.00;;;;;27.90;26.83;100456.69;5081753;27;45786;-72
2023/03/16 18:45:10;;;;;;;;;1.33;1.33;;;;;27.86;26.92;100449.97;5079129;27;45545;-72
2023/03/16 18:47:38;;;;;;;;;3.33;3.33;;;;;27.85;26.67;100461.91;5079882;27;45631;-72
2023/03/16 18:50:04;;;;;;;;;1.00;1.00;;;;;27.82;27.17;100459.59;5080833;27;45577;-72
2023/03/16 18:52:33;;;;;;;;;1.67;1.67;;;;;27.80;27.51;100461.69;5083316;27;46520;-72
2023/03/16 18:54:58;;;;;;;;;5.33;3.00;;;;;27.74;27.31;100461.47;5076203;27;45694;-72